Time;durP1;ratioP1;P1;durP2;ratioP2;P2;SDS_P1;SDS_P2;PMS_P1;PMS_P2;Temp;Humidity;BMP_temperature;BMP_pressure;BME280_temperature;BME280_humidity;BME280_pressure;Samples;Min_cycle;Max_cycle;Signal;HPM_P1;HPM_P2
2022/08/29 00:01:46;;;;;;;17.02;9.82;;;;;;;;;;3365846;42;20142;-60
2022/08/29 00:04:13;;;;;;;20.60;9.60;;;;;;;;;;3366233;42;20168;-61
2022/08/29 00:06:39;;;;;;;17.97;10.13;;;;;;;;;;3364375;42;20552;-60
2022/08/29 00:09:05;;;;;;;18.88;10.40;;;;;;;;;;3366193;42;20092;-60
2022/08/29 00:11:31;;;;;;;19.90;9.98;;;;;;;;;;3365902;42;20087;-60
2022/08/29 00:13:58;;;;;;;19.05;9.57;;;;;;;;;;3366200;42;20136;-61
2022/08/29 00:16:24;;;;;;;19.43;10.00;;;;;;;;;;3365975;42;20087;-61
2022/08/29 00:18:50;;;;;;;18.30;9.98;;;;;;;;;;3364763;42;20090;-60
2022/08/29 00:21:16;;;;;;;19.45;9.57;;;;;;;;;;3366051;42;20084;-60
2022/08/29 00:23:44;;;;;;;18.58;9.48;;;;;;;;;;3365777;42;20102;-61
2022/08/29 00:26:10;;;;;;;18.45;9.45;;;;;;;;;;3361582;42;20139;-60
2022/08/29 00:28:36;;;;;;;18.53;10.23;;;;;;;;;;3365761;42;20119;-61
2022/08/29 00:31:02;;;;;;;18.50;10.10;;;;;;;;;;3365918;42;20083;-65
2022/08/29 00:33:28;;;;;;;17.25;8.98;;;;;;;;;;3366271;42;20550;-61
2022/08/29 00:35:54;;;;;;;17.58;9.60;;;;;;;;;;3366655;42;20131;-61
2022/08/29 00:38:20;;;;;;;18.03;9.83;;;;;;;;;;3366663;42;20095;-61
2022/08/29 00:40:51;;;;;;;18.80;9.25;;;;;;;;;;3367775;42;20107;-60
2022/08/29 00:43:20;;;;;;;18.42;9.82;;;;;;;;;;3367854;42;20188;-60
2022/08/29 00:45:50;;;;;;;19.20;10.07;;;;;;;;;;3366294;42;20087;-61
2022/08/29 00:48:16;;;;;;;18.65;10.00;;;;;;;;;;3366538;42;20087;-60
2022/08/29 00:51:11;;;;;;;20.57;9.93;;;;;;;;;;3367664;42;20076;-61
2022/08/29 00:53:39;;;;;;;19.02;10.10;;;;;;;;;;3365417;42;20199;-61
2022/08/29 00:56:06;;;;;;;19.23;10.43;;;;;;;;;;3365036;42;20099;-61
2022/08/29 00:58:39;;;;;;;21.70;10.15;;;;;;;;;;3366570;42;20151;-59
2022/08/29 01:01:05;;;;;;;21.67;10.85;;;;;;;;;;3366698;42;20139;-60
2022/08/29 01:03:32;;;;;;;19.70;10.50;;;;;;;;;;3366309;42;20095;-60
2022/08/29 01:05:59;;;;;;;20.40;10.88;;;;;;;;;;3366101;42;20547;-60
2022/08/29 01:08:25;;;;;;;21.30;10.27;;;;;;;;;;3366345;42;20558;-60
2022/08/29 01:13:36;;;;;;;19.08;10.38;;;;;;;;;;3366661;42;20161;-60
2022/08/29 01:16:03;;;;;;;19.57;10.50;;;;;;;;;;3358821;42;20087;-60
2022/08/29 01:18:30;;;;;;;19.42;10.30;;;;;;;;;;3365829;42;20554;-59
2022/08/29 01:21:02;;;;;;;19.52;10.93;;;;;;;;;;3358642;42;20088;-60
2022/08/29 01:23:43;;;;;;;19.52;11.02;;;;;;;;;;3366552;42;20213;-59
2022/08/29 01:26:10;;;;;;;18.85;10.52;;;;;;;;;;3366148;42;20107;-60
2022/08/29 01:28:39;;;;;;;19.50;10.90;;;;;;;;;;3365795;42;20140;-60
2022/08/29 01:31:07;;;;;;;22.85;10.43;;;;;;;;;;3366098;42;20147;-61
2022/08/29 01:33:44;;;;;;;20.13;10.30;;;;;;;;;;3368366;42;20182;-58
2022/08/29 01:36:13;;;;;;;20.33;10.10;;;;;;;;;;3368684;42;20111;-60
2022/08/29 01:38:40;;;;;;;18.00;10.10;;;;;;;;;;3366336;42;20096;-60
2022/08/29 01:41:06;;;;;;;17.93;10.70;;;;;;;;;;3367357;42;20096;-61
2022/08/29 01:43:38;;;;;;;18.85;10.15;;;;;;;;;;3367577;42;20103;-61
2022/08/29 01:46:04;;;;;;;19.15;10.25;;;;;;;;;;3365601;42;20139;-61
2022/08/29 01:48:30;;;;;;;19.65;10.85;;;;;;;;;;3366205;42;20162;-61
2022/08/29 01:50:55;;;;;;;20.57;9.97;;;;;;;;;;3365612;42;20125;-60
2022/08/29 01:53:21;;;;;;;19.50;10.40;;;;;;;;;;3366798;42;20167;-60
2022/08/29 01:55:47;;;;;;;18.83;10.65;;;;;;;;;;3367160;42;20091;-61
2022/08/29 01:58:15;;;;;;;18.02;9.90;;;;;;;;;;3367147;42;20084;-61
2022/08/29 02:00:41;;;;;;;19.20;10.23;;;;;;;;;;3367077;42;20096;-61
2022/08/29 02:03:06;;;;;;;18.88;10.30;;;;;;;;;;3367175;42;20103;-60
2022/08/29 02:05:32;;;;;;;19.52;10.35;;;;;;;;;;3367262;42;20178;-60
2022/08/29 02:07:59;;;;;;;20.33;10.10;;;;;;;;;;3365043;42;20087;-60
2022/08/29 02:10:25;;;;;;;18.17;10.23;;;;;;;;;;3365499;42;20352;-60
2022/08/29 02:12:52;;;;;;;19.48;9.82;;;;;;;;;;3365813;42;20079;-60
2022/08/29 02:15:19;;;;;;;19.25;9.80;;;;;;;;;;3366987;42;20131;-60
2022/08/29 02:17:45;;;;;;;18.92;10.32;;;;;;;;;;3367250;42;20179;-60
2022/08/29 02:20:12;;;;;;;20.83;10.05;;;;;;;;;;3367879;42;20091;-60
2022/08/29 02:22:38;;;;;;;21.87;10.33;;;;;;;;;;3366894;42;20187;-59
2022/08/29 02:25:40;;;;;;;18.08;10.30;;;;;;;;;;3365850;42;20091;-60
2022/08/29 02:27:51;;;;;;;17.73;10.10;;;;;;;;;;3366602;42;20185;-60
2022/08/29 02:30:18;;;;;;;17.98;9.95;;;;;;;;;;3366848;42;20091;-61
2022/08/29 02:32:44;;;;;;;21.13;10.05;;;;;;;;;;3365499;42;20135;-61
2022/08/29 02:35:10;;;;;;;17.43;9.90;;;;;;;;;;3366961;42;20087;-60
2022/08/29 02:37:36;;;;;;;20.33;9.80;;;;;;;;;;3366651;42;20084;-65
2022/08/29 02:40:02;;;;;;;18.52;9.90;;;;;;;;;;3366583;42;20143;-60
2022/08/29 02:42:28;;;;;;;17.53;9.80;;;;;;;;;;3365208;42;20513;-60
2022/08/29 02:44:54;;;;;;;19.08;9.50;;;;;;;;;;3366763;42;20710;-62
2022/08/29 02:47:20;;;;;;;19.23;10.23;;;;;;;;;;3366663;42;20095;-61
2022/08/29 02:49:46;;;;;;;19.25;9.70;;;;;;;;;;3366852;42;20083;-66
2022/08/29 02:52:12;;;;;;;17.70;9.70;;;;;;;;;;3366910;42;20119;-61
2022/08/29 02:54:38;;;;;;;21.90;10.50;;;;;;;;;;3369693;42;20100;-62
2022/08/29 02:57:04;;;;;;;19.15;10.00;;;;;;;;;;3363056;42;20088;-60
2022/08/29 02:59:30;;;;;;;16.47;9.07;;;;;;;;;;3358392;42;20104;-60
2022/08/29 03:01:56;;;;;;;18.35;9.40;;;;;;;;;;3363317;42;20621;-60
2022/08/29 03:04:22;;;;;;;16.90;9.95;;;;;;;;;;3361249;42;20118;-60
2022/08/29 03:06:48;;;;;;;17.33;9.80;;;;;;;;;;3362461;42;20530;-60
2022/08/29 03:09:14;;;;;;;16.43;9.37;;;;;;;;;;3366313;42;20111;-61
2022/08/29 03:11:40;;;;;;;18.08;9.07;;;;;;;;;;3366377;42;20099;-60
2022/08/29 03:14:06;;;;;;;16.08;9.05;;;;;;;;;;3364334;42;20110;-60
2022/08/29 03:16:32;;;;;;;18.08;10.05;;;;;;;;;;3366143;42;20575;-59
2022/08/29 03:18:58;;;;;;;16.03;9.13;;;;;;;;;;3366097;42;20147;-60
2022/08/29 03:21:25;;;;;;;16.77;9.07;;;;;;;;;;3366122;42;20556;-61
2022/08/29 03:23:51;;;;;;;14.82;9.38;;;;;;;;;;3365563;42;20107;-60
2022/08/29 03:26:17;;;;;;;18.15;9.20;;;;;;;;;;3366223;42;20092;-59
2022/08/29 03:28:43;;;;;;;18.92;9.85;;;;;;;;;;3365934;42;20170;-59
2022/08/29 03:31:09;;;;;;;18.10;9.67;;;;;;;;;;3366333;42;20186;-61
2022/08/29 03:33:35;;;;;;;17.75;9.85;;;;;;;;;;3366510;42;20088;-61
2022/08/29 03:36:02;;;;;;;17.30;9.27;;;;;;;;;;3366337;42;20160;-61
2022/08/29 03:38:28;;;;;;;17.05;9.60;;;;;;;;;;3365069;42;20103;-61
2022/08/29 03:40:54;;;;;;;16.15;9.48;;;;;;;;;;3366041;42;20099;-61
2022/08/29 03:43:20;;;;;;;16.70;9.13;;;;;;;;;;3366278;42;20238;-61
2022/08/29 03:45:48;;;;;;;15.65;8.43;;;;;;;;;;3366303;42;20100;-60
2022/08/29 03:48:14;;;;;;;17.08;8.90;;;;;;;;;;3366087;42;20099;-60
2022/08/29 03:50:41;;;;;;;36.97;10.93;;;;;;;;;;3366215;42;20094;-60
2022/08/29 03:53:07;;;;;;;23.92;10.30;;;;;;;;;;3365836;42;20151;-60
2022/08/29 03:55:33;;;;;;;16.90;8.90;;;;;;;;;;3365767;42;20219;-61
2022/08/29 03:57:59;;;;;;;29.58;9.60;;;;;;;;;;3364902;42;20092;-60
2022/08/29 04:00:25;;;;;;;17.98;8.52;;;;;;;;;;3360644;42;20110;-58
2022/08/29 04:02:54;;;;;;;17.00;8.63;;;;;;;;;;3363838;42;20124;-61
2022/08/29 04:05:20;;;;;;;16.13;8.70;;;;;;;;;;3364492;42;20602;-60
2022/08/29 04:07:54;;;;;;;15.05;8.23;;;;;;;;;;3365578;42;20517;-61
2022/08/29 04:10:28;;;;;;;14.98;8.32;;;;;;;;;;3366017;42;20643;-61
2022/08/29 04:12:54;;;;;;;14.93;8.30;;;;;;;;;;3364432;42;20147;-61
2022/08/29 04:15:20;;;;;;;14.85;7.80;;;;;;;;;;3365876;42;20100;-59
2022/08/29 04:17:46;;;;;;;15.93;8.63;;;;;;;;;;3365958;42;20095;-60
2022/08/29 04:20:12;;;;;;;15.27;8.45;;;;;;;;;;3360915;42;20157;-62
2022/08/29 04:22:39;;;;;;;14.40;8.32;;;;;;;;;;3365819;42;20631;-61
2022/08/29 04:25:06;;;;;;;15.10;8.40;;;;;;;;;;3364036;42;20194;-62
2022/08/29 04:27:33;;;;;;;14.70;7.87;;;;;;;;;;3364389;42;20088;-62
2022/08/29 04:29:59;;;;;;;16.23;8.55;;;;;;;;;;3365649;42;20549;-62
2022/08/29 04:32:25;;;;;;;14.52;8.00;;;;;;;;;;3366008;42;20542;-62
2022/08/29 04:34:55;;;;;;;13.32;8.00;;;;;;;;;;3365585;42;20103;-62
2022/08/29 04:37:21;;;;;;;13.75;8.60;;;;;;;;;;3365595;42;20644;-62
2022/08/29 04:39:46;;;;;;;15.27;8.30;;;;;;;;;;3364019;42;20084;-62
2022/08/29 04:42:12;;;;;;;18.25;8.57;;;;;;;;;;3365584;42;20135;-61
2022/08/29 04:44:38;;;;;;;14.55;7.80;;;;;;;;;;3365259;42;20098;-61
2022/08/29 04:47:05;;;;;;;13.02;7.85;;;;;;;;;;3365683;42;20518;-62
2022/08/29 04:49:31;;;;;;;14.07;7.47;;;;;;;;;;3364388;42;20566;-62
2022/08/29 04:51:57;;;;;;;15.48;8.38;;;;;;;;;;3365439;42;20258;-62
2022/08/29 04:54:22;;;;;;;13.90;8.27;;;;;;;;;;3365368;42;20095;-61
2022/08/29 04:56:48;;;;;;;16.65;7.72;;;;;;;;;;3364217;42;20110;-60
2022/08/29 04:59:15;;;;;;;14.37;7.93;;;;;;;;;;3365343;42;20146;-61
2022/08/29 05:01:41;;;;;;;15.52;8.30;;;;;;;;;;3365512;42;20594;-62
2022/08/29 05:04:07;;;;;;;12.15;7.70;;;;;;;;;;3363983;42;20092;-61
2022/08/29 05:06:33;;;;;;;14.67;7.73;;;;;;;;;;3365322;42;20162;-61
2022/08/29 05:08:59;;;;;;;15.37;7.90;;;;;;;;;;3365511;42;20933;-61
2022/08/29 05:11:25;;;;;;;13.82;7.80;;;;;;;;;;3365724;42;20094;-61
2022/08/29 05:13:52;;;;;;;14.82;7.82;;;;;;;;;;3365391;42;20080;-62
2022/08/29 05:16:18;;;;;;;13.48;7.93;;;;;;;;;;3355303;42;20784;-61
2022/08/29 05:18:45;;;;;;;16.10;8.10;;;;;;;;;;3362304;42;20908;-62
2022/08/29 05:21:12;;;;;;;13.80;7.70;;;;;;;;;;3364419;42;20162;-62
2022/08/29 05:23:39;;;;;;;16.40;7.70;;;;;;;;;;3365151;42;20162;-61
2022/08/29 05:26:05;;;;;;;15.30;8.15;;;;;;;;;;3363355;42;20103;-62
2022/08/29 05:28:31;;;;;;;17.15;8.48;;;;;;;;;;3363029;42;20144;-62
2022/08/29 05:30:58;;;;;;;13.30;7.97;;;;;;;;;;3363154;42;20079;-61
2022/08/29 05:33:26;;;;;;;13.10;7.85;;;;;;;;;;3362014;42;20097;-61
2022/08/29 05:35:52;;;;;;;14.40;7.63;;;;;;;;;;3364290;42;20583;-64
2022/08/29 05:38:18;;;;;;;13.80;7.95;;;;;;;;;;3366290;42;20080;-61
2022/08/29 05:40:44;;;;;;;14.57;8.30;;;;;;;;;;3365129;42;20486;-61
2022/08/29 05:43:10;;;;;;;13.75;8.18;;;;;;;;;;3360953;42;20139;-62
2022/08/29 05:45:37;;;;;;;18.10;8.60;;;;;;;;;;3362463;42;20551;-62
2022/08/29 05:48:04;;;;;;;13.43;7.43;;;;;;;;;;3365968;42;20570;-61
2022/08/29 05:50:30;;;;;;;14.00;7.60;;;;;;;;;;3364812;42;20231;-61
2022/08/29 05:52:56;;;;;;;14.20;7.60;;;;;;;;;;3366298;42;20100;-62
2022/08/29 05:55:22;;;;;;;13.82;7.80;;;;;;;;;;3365030;42;20080;-61
2022/08/29 05:57:50;;;;;;;12.25;7.68;;;;;;;;;;3366228;42;20214;-62
2022/08/29 06:00:16;;;;;;;12.82;7.65;;;;;;;;;;3366327;42;20088;-59
2022/08/29 06:02:42;;;;;;;13.87;7.40;;;;;;;;;;3365017;42;20126;-63
2022/08/29 06:05:09;;;;;;;12.70;7.60;;;;;;;;;;3365962;42;20413;-62
2022/08/29 06:07:35;;;;;;;11.52;7.15;;;;;;;;;;3366371;42;20143;-64
2022/08/29 06:10:05;;;;;;;13.95;7.53;;;;;;;;;;3364157;42;20111;-61
2022/08/29 06:12:31;;;;;;;15.85;7.32;;;;;;;;;;3365386;42;20092;-67
2022/08/29 06:14:57;;;;;;;12.52;7.90;;;;;;;;;;3365609;42;20088;-61
2022/08/29 06:17:23;;;;;;;11.75;7.15;;;;;;;;;;3365624;42;20123;-61
2022/08/29 06:19:50;;;;;;;11.48;6.93;;;;;;;;;;3360299;42;20092;-65
2022/08/29 06:22:18;;;;;;;12.82;7.00;;;;;;;;;;3363783;42;20623;-61
2022/08/29 06:24:44;;;;;;;12.33;6.97;;;;;;;;;;3363655;42;20562;-62
2022/08/29 06:27:11;;;;;;;11.07;6.82;;;;;;;;;;3365043;42;20168;-61
2022/08/29 06:29:37;;;;;;;11.48;7.45;;;;;;;;;;3365044;42;20088;-60
2022/08/29 06:32:03;;;;;;;14.77;7.35;;;;;;;;;;3365378;42;20569;-62
2022/08/29 06:34:29;;;;;;;11.30;7.33;;;;;;;;;;3365394;42;20155;-62
2022/08/29 06:36:55;;;;;;;12.15;7.28;;;;;;;;;;3365066;42;20178;-62
2022/08/29 06:39:21;;;;;;;11.80;7.53;;;;;;;;;;3360430;42;20104;-62
2022/08/29 06:41:47;;;;;;;9.65;7.00;;;;;;;;;;3361374;42;20079;-62
2022/08/29 06:44:13;;;;;;;11.27;7.27;;;;;;;;;;3364696;42;20091;-61
2022/08/29 06:46:41;;;;;;;13.50;7.60;;;;;;;;;;3365300;42;20608;-62
2022/08/29 06:49:12;;;;;;;11.48;7.47;;;;;;;;;;3363387;42;20466;-61
2022/08/29 06:51:39;;;;;;;13.15;7.18;;;;;;;;;;3364968;42;20491;-61
2022/08/29 06:54:06;;;;;;;13.40;7.60;;;;;;;;;;3365013;42;20091;-62
2022/08/29 06:56:32;;;;;;;13.17;7.30;;;;;;;;;;3365287;42;20099;-61
2022/08/29 06:58:58;;;;;;;14.35;7.40;;;;;;;;;;3356820;42;20107;-62
2022/08/29 07:01:24;;;;;;;12.77;6.53;;;;;;;;;;3367612;42;20107;-61
2022/08/29 07:03:54;;;;;;;12.55;7.15;;;;;;;;;;3364571;42;20175;-61
2022/08/29 07:06:20;;;;;;;12.45;6.80;;;;;;;;;;3364478;42;20135;-62
2022/08/29 07:08:46;;;;;;;18.40;7.30;;;;;;;;;;3365438;42;20087;-62
2022/08/29 07:11:12;;;;;;;14.82;6.82;;;;;;;;;;3364172;42;20088;-62
2022/08/29 07:13:39;;;;;;;12.55;7.00;;;;;;;;;;3360797;42;20127;-61
2022/08/29 07:16:13;;;;;;;11.45;6.90;;;;;;;;;;3365448;42;20139;-61
2022/08/29 07:18:39;;;;;;;11.77;6.80;;;;;;;;;;3365708;42;20079;-62
2022/08/29 07:21:06;;;;;;;11.48;6.68;;;;;;;;;;3365873;42;20090;-61
2022/08/29 07:23:33;;;;;;;11.73;6.90;;;;;;;;;;3365924;42;20648;-61
2022/08/29 07:26:09;;;;;;;12.52;6.80;;;;;;;;;;3365764;42;20128;-62
2022/08/29 07:28:35;;;;;;;14.43;6.60;;;;;;;;;;3364214;42;20111;-62
2022/08/29 07:31:01;;;;;;;13.70;6.97;;;;;;;;;;3364146;42;20079;-61
2022/08/29 07:33:27;;;;;;;11.40;6.43;;;;;;;;;;3364099;42;20096;-60
2022/08/29 07:35:53;;;;;;;11.93;6.90;;;;;;;;;;3364076;42;20104;-63
2022/08/29 07:38:20;;;;;;;10.57;6.68;;;;;;;;;;3364059;42;20095;-62
2022/08/29 07:40:46;;;;;;;13.07;6.90;;;;;;;;;;3364902;42;20112;-62
2022/08/29 07:43:12;;;;;;;12.33;6.10;;;;;;;;;;3365008;42;20101;-62
2022/08/29 07:45:38;;;;;;;13.20;7.03;;;;;;;;;;3365176;42;20076;-62
2022/08/29 07:48:04;;;;;;;13.73;6.70;;;;;;;;;;3365446;42;20123;-62
2022/08/29 07:50:30;;;;;;;12.95;6.50;;;;;;;;;;3365838;42;20087;-62
2022/08/29 07:52:56;;;;;;;10.40;6.27;;;;;;;;;;3364390;42;20169;-62
2022/08/29 07:55:23;;;;;;;9.95;6.40;;;;;;;;;;3365210;42;20177;-60
2022/08/29 07:57:52;;;;;;;13.80;6.90;;;;;;;;;;3364128;42;20087;-62
2022/08/29 08:00:19;;;;;;;11.68;6.80;;;;;;;;;;3365703;42;20076;-61
2022/08/29 08:02:46;;;;;;;12.03;6.40;;;;;;;;;;3365352;42;20558;-61
2022/08/29 08:05:12;;;;;;;12.00;6.82;;;;;;;;;;3365472;42;20084;-62
2022/08/29 08:07:38;;;;;;;13.40;6.95;;;;;;;;;;3365243;42;20162;-61
2022/08/29 08:10:04;;;;;;;15.02;7.35;;;;;;;;;;3365631;42;20123;-61
2022/08/29 08:12:30;;;;;;;13.05;7.03;;;;;;;;;;3365578;42;20119;-61
2022/08/29 08:14:56;;;;;;;11.17;6.40;;;;;;;;;;3364932;42;20130;-61
2022/08/29 08:17:22;;;;;;;10.93;6.35;;;;;;;;;;3363896;42;20558;-62
2022/08/29 08:19:48;;;;;;;20.73;6.95;;;;;;;;;;3364902;42;20471;-61
2022/08/29 08:22:14;;;;;;;16.23;6.57;;;;;;;;;;3364920;42;20080;-62
2022/08/29 08:24:40;;;;;;;14.20;6.80;;;;;;;;;;3365754;42;20455;-62
2022/08/29 08:27:06;;;;;;;13.05;6.22;;;;;;;;;;3365409;42;20084;-61
2022/08/29 08:29:32;;;;;;;12.65;7.30;;;;;;;;;;3365389;42;20099;-61
2022/08/29 08:31:58;;;;;;;13.73;6.47;;;;;;;;;;3365234;42;20135;-61
2022/08/29 08:34:25;;;;;;;13.00;6.67;;;;;;;;;;3365158;42;20096;-63
2022/08/29 08:36:51;;;;;;;14.20;7.03;;;;;;;;;;3364255;42;20091;-61
2022/08/29 08:39:17;;;;;;;12.35;6.78;;;;;;;;;;3365613;42;20201;-63
2022/08/29 08:41:56;;;;;;;10.40;6.30;;;;;;;;;;3365660;42;20197;-61
2022/08/29 08:44:23;;;;;;;12.10;6.63;;;;;;;;;;3355660;42;20088;-60
2022/08/29 08:46:51;;;;;;;9.43;6.47;;;;;;;;;;3363222;42;20128;-62
2022/08/29 08:49:25;;;;;;;12.05;6.93;;;;;;;;;;3347991;42;20140;-61
2022/08/29 08:51:53;;;;;;;12.35;6.85;;;;;;;;;;3357421;42;20088;-61
2022/08/29 08:54:33;;;;;;;12.32;6.55;;;;;;;;;;3351169;42;20096;-61
2022/08/29 08:57:10;;;;;;;15.15;6.95;;;;;;;;;;3357839;42;20497;-61
2022/08/29 08:59:44;;;;;;;12.40;6.73;;;;;;;;;;3361587;42;20102;-61
2022/08/29 09:02:36;;;;;;;12.38;6.68;;;;;;;;;;3353435;42;20590;-61
2022/08/29 09:05:08;;;;;;;11.18;6.43;;;;;;;;;;3361028;42;20475;-62
2022/08/29 09:08:04;;;;;;;13.45;6.80;;;;;;;;;;3360375;42;20092;-62
2022/08/29 09:10:42;;;;;;;12.15;6.57;;;;;;;;;;3362444;42;20107;-62
2022/08/29 09:13:34;;;;;;;11.07;6.73;;;;;;;;;;3364243;42;20092;-60
2022/08/29 09:16:02;;;;;;;12.38;6.82;;;;;;;;;;3360533;42;20093;-62
2022/08/29 09:18:33;;;;;;;10.15;7.07;;;;;;;;;;3362496;42;20580;-62
2022/08/29 09:21:00;;;;;;;11.48;6.30;;;;;;;;;;3364913;42;20095;-61
2022/08/29 09:23:49;;;;;;;12.57;6.43;;;;;;;;;;3361643;42;20554;-62
2022/08/29 09:26:16;;;;;;;12.60;6.70;;;;;;;;;;3361588;42;20139;-61
2022/08/29 09:28:42;;;;;;;11.93;6.53;;;;;;;;;;3362540;42;20463;-61
2022/08/29 09:31:30;;;;;;;10.20;6.03;;;;;;;;;;3354926;42;20114;-62
2022/08/29 09:34:01;;;;;;;11.77;6.05;;;;;;;;;;3357880;42;20096;-61
2022/08/29 09:36:49;;;;;;;11.47;6.00;;;;;;;;;;3363232;42;20103;-62
2022/08/29 09:39:22;;;;;;;10.48;6.47;;;;;;;;;;3364061;42;20091;-61
2022/08/29 09:41:52;;;;;;;14.48;6.82;;;;;;;;;;3361138;42;20107;-62
2022/08/29 09:44:21;;;;;;;12.32;6.45;;;;;;;;;;3363198;42;20533;-62
2022/08/29 09:47:10;;;;;;;11.38;6.20;;;;;;;;;;3353478;42;20129;-62
2022/08/29 09:49:38;;;;;;;14.53;6.50;;;;;;;;;;3362354;42;20672;-62
2022/08/29 09:52:14;;;;;;;10.48;6.15;;;;;;;;;;3359620;42;20088;-62
2022/08/29 09:54:40;;;;;;;10.20;6.20;;;;;;;;;;3356796;42;20153;-62
2022/08/29 09:57:13;;;;;;;10.32;6.22;;;;;;;;;;3361297;42;20107;-62
2022/08/29 09:59:43;;;;;;;11.70;6.35;;;;;;;;;;3356492;42;20080;-62
2022/08/29 10:02:12;;;;;;;12.77;6.23;;;;;;;;;;3355525;42;20089;-62
2022/08/29 10:04:39;;;;;;;11.75;6.57;;;;;;;;;;3358998;42;20080;-62
2022/08/29 10:07:23;;;;;;;13.00;6.05;;;;;;;;;;3356842;42;20083;-62
2022/08/29 10:09:59;;;;;;;11.80;6.22;;;;;;;;;;3365152;42;20102;-62
2022/08/29 10:12:53;;;;;;;12.77;5.97;;;;;;;;;;3366306;42;20130;-61
2022/08/29 10:15:57;;;;;;;11.50;5.90;;;;;;;;;;3349451;42;20102;-61
2022/08/29 10:18:36;;;;;;;11.77;6.20;;;;;;;;;;3353434;42;20567;-62
2022/08/29 10:21:29;;;;;;;10.30;6.05;;;;;;;;;;3359708;42;20613;-64
2022/08/29 10:24:17;;;;;;;14.23;6.40;;;;;;;;;;3359299;42;20135;-63
2022/08/29 10:26:52;;;;;;;12.35;6.50;;;;;;;;;;3358211;42;20100;-62
2022/08/29 10:29:25;;;;;;;10.83;6.27;;;;;;;;;;3358970;42;20182;-62
2022/08/29 10:32:26;;;;;;;10.60;6.43;;;;;;;;;;3361146;42;20796;-63
2022/08/29 10:35:22;;;;;;;10.85;5.82;;;;;;;;;;3341840;42;20096;-61
2022/08/29 10:38:11;;;;;;;13.77;5.65;;;;;;;;;;3364973;42;20519;-62
2022/08/29 10:40:52;;;;;;;10.93;5.70;;;;;;;;;;3361342;42;20092;-62
2022/08/29 10:43:36;;;;;;;12.30;5.63;;;;;;;;;;3357851;42;20554;-62
2022/08/29 10:46:08;;;;;;;11.05;5.70;;;;;;;;;;3352551;42;20080;-62
2022/08/29 10:49:15;;;;;;;11.18;5.43;;;;;;;;;;3359428;42;20095;-62
2022/08/29 10:52:05;;;;;;;10.45;5.75;;;;;;;;;;3357802;42;20558;-62
2022/08/29 10:55:10;;;;;;;12.15;6.13;;;;;;;;;;3351780;42;20514;-62
2022/08/29 10:57:45;;;;;;;10.90;5.93;;;;;;;;;;3363255;42;20088;-62
2022/08/29 11:00:19;;;;;;;12.50;5.93;;;;;;;;;;3365740;42;20143;-61
2022/08/29 11:02:51;;;;;;;10.95;5.47;;;;;;;;;;3364865;42;20624;-61
2022/08/29 11:05:26;;;;;;;11.90;6.07;;;;;;;;;;3366620;42;20207;-62
2022/08/29 11:08:07;;;;;;;11.75;6.28;;;;;;;;;;3364802;42;20577;-61
2022/08/29 11:10:39;;;;;;;9.83;5.83;;;;;;;;;;3364222;42;20107;-61
2022/08/29 11:13:23;;;;;;;12.38;6.05;;;;;;;;;;3364419;42;20514;-60
2022/08/29 11:16:09;;;;;;;10.93;6.32;;;;;;;;;;3364528;42;20094;-60
2022/08/29 11:18:55;;;;;;;11.05;6.10;;;;;;;;;;3361607;42;20088;-62
2022/08/29 11:21:39;;;;;;;10.95;5.97;;;;;;;;;;3365558;42;20185;-61
2022/08/29 11:24:06;;;;;;;13.00;6.70;;;;;;;;;;3364134;42;20600;-62
2022/08/29 11:26:44;;;;;;;12.50;6.20;;;;;;;;;;3364513;42;20139;-60
2022/08/29 11:29:36;;;;;;;12.63;5.90;;;;;;;;;;3366436;42;20182;-62
2022/08/29 11:32:31;;;;;;;12.23;6.18;;;;;;;;;;3364160;42;20104;-62
2022/08/29 11:35:22;;;;;;;11.68;6.30;;;;;;;;;;3363793;42;20192;-62
2022/08/29 11:37:54;;;;;;;12.50;6.00;;;;;;;;;;3360232;42;20100;-61
2022/08/29 11:40:37;;;;;;;9.95;5.80;;;;;;;;;;3366445;42;20562;-62
2022/08/29 11:43:04;;;;;;;11.05;6.45;;;;;;;;;;3364219;42;20161;-63
2022/08/29 11:45:34;;;;;;;10.77;6.32;;;;;;;;;;3363958;42;20076;-61
2022/08/29 11:48:15;;;;;;;11.55;5.85;;;;;;;;;;3364283;42;20083;-61
2022/08/29 11:50:41;;;;;;;11.73;6.00;;;;;;;;;;3364746;42;20092;-62
2022/08/29 11:53:34;;;;;;;12.07;6.15;;;;;;;;;;3363883;42;20111;-61
2022/08/29 11:56:12;;;;;;;11.43;6.05;;;;;;;;;;3365100;42;20087;-63
2022/08/29 11:58:41;;;;;;;9.88;5.75;;;;;;;;;;3366542;42;20126;-61
2022/08/29 12:01:36;;;;;;;10.75;5.90;;;;;;;;;;3365419;42;20114;-62
2022/08/29 12:04:06;;;;;;;13.63;5.60;;;;;;;;;;3361373;42;20110;-62
2022/08/29 12:06:51;;;;;;;14.45;6.10;;;;;;;;;;3365302;42;20638;-62
2022/08/29 12:09:55;;;;;;;10.50;5.60;;;;;;;;;;3365634;42;20103;-62
2022/08/29 12:12:44;;;;;;;10.75;5.97;;;;;;;;;;3333327;42;20101;-60
2022/08/29 12:15:29;;;;;;;12.40;6.00;;;;;;;;;;3363848;42;20138;-61
2022/08/29 12:17:59;;;;;;;10.43;5.70;;;;;;;;;;3366458;42;20087;-62
2022/08/29 12:20:41;;;;;;;9.68;5.60;;;;;;;;;;3363599;42;20193;-62
2022/08/29 12:23:10;;;;;;;8.90;5.50;;;;;;;;;;3358731;42;20143;-61
2022/08/29 12:25:45;;;;;;;11.60;5.85;;;;;;;;;;3366248;42;20155;-62
2022/08/29 12:28:17;;;;;;;10.25;5.28;;;;;;;;;;3372279;42;20206;-61
2022/08/29 12:31:01;;;;;;;12.83;5.90;;;;;;;;;;3367822;42;20140;-62
2022/08/29 12:33:42;;;;;;;11.23;5.78;;;;;;;;;;3365847;42;20148;-62
2022/08/29 12:36:14;;;;;;;12.45;5.57;;;;;;;;;;3367067;42;20101;-61
2022/08/29 12:39:03;;;;;;;12.98;5.78;;;;;;;;;;3366748;42;20096;-62
2022/08/29 12:41:57;;;;;;;12.57;5.90;;;;;;;;;;3365782;42;20190;-62
2022/08/29 12:44:34;;;;;;;11.03;5.60;;;;;;;;;;3361941;42;20088;-62
2022/08/29 12:47:25;;;;;;;10.18;5.70;;;;;;;;;;3362306;42;20677;-62
2022/08/29 12:49:55;;;;;;;10.82;5.63;;;;;;;;;;3358343;42;20276;-62
2022/08/29 12:52:25;;;;;;;12.15;5.72;;;;;;;;;;3361500;42;20226;-61
2022/08/29 12:54:51;;;;;;;14.25;6.68;;;;;;;;;;3358221;42;20096;-62
2022/08/29 12:57:24;;;;;;;9.97;5.60;;;;;;;;;;3361024;42;20100;-62
2022/08/29 12:59:51;;;;;;;12.38;5.47;;;;;;;;;;3360782;42;20099;-62
2022/08/29 13:02:25;;;;;;;11.27;5.65;;;;;;;;;;3361438;42;20138;-62
2022/08/29 13:04:51;;;;;;;10.55;5.45;;;;;;;;;;3363155;42;20096;-61
2022/08/29 13:07:17;;;;;;;13.27;6.07;;;;;;;;;;3363061;42;20154;-62
2022/08/29 13:10:06;;;;;;;13.50;5.97;;;;;;;;;;3366781;42;20518;-62
2022/08/29 13:12:35;;;;;;;13.07;6.60;;;;;;;;;;3366719;42;20684;-62
2022/08/29 13:15:02;;;;;;;11.90;6.25;;;;;;;;;;3366879;42;20167;-62
2022/08/29 13:17:40;;;;;;;15.20;6.82;;;;;;;;;;3372411;42;20089;-62
2022/08/29 13:20:41;;;;;;;12.73;6.78;;;;;;;;;;3362793;42;20155;-62
2022/08/29 13:23:35;;;;;;;12.17;6.80;;;;;;;;;;3364401;42;20084;-63
2022/08/29 13:26:02;;;;;;;12.50;6.95;;;;;;;;;;3361831;42;20102;-61
2022/08/29 13:28:57;;;;;;;13.48;6.63;;;;;;;;;;3365874;42;20800;-62
2022/08/29 13:31:34;;;;;;;13.27;7.15;;;;;;;;;;3353326;42;20091;-61
2022/08/29 13:34:08;;;;;;;13.60;6.80;;;;;;;;;;3361381;42;20096;-61
2022/08/29 13:36:42;;;;;;;13.23;6.90;;;;;;;;;;3366749;42;20084;-62
2022/08/29 13:39:26;;;;;;;13.65;7.00;;;;;;;;;;3360594;42;20160;-63
2022/08/29 13:42:01;;;;;;;13.10;7.10;;;;;;;;;;3366882;42;20558;-61
2022/08/29 13:44:38;;;;;;;16.60;7.18;;;;;;;;;;3367367;42;20517;-62
2022/08/29 13:47:51;;;;;;;13.00;7.05;;;;;;;;;;3365092;42;20144;-63
2022/08/29 13:50:26;;;;;;;13.63;7.17;;;;;;;;;;3330495;42;20125;-62
2022/08/29 13:52:54;;;;;;;14.00;7.45;;;;;;;;;;3362041;42;20102;-61
2022/08/29 13:55:20;;;;;;;13.88;7.22;;;;;;;;;;3363202;42;20530;-61
2022/08/29 13:57:49;;;;;;;12.77;7.40;;;;;;;;;;3365230;42;20545;-61
2022/08/29 14:00:15;;;;;;;13.65;6.82;;;;;;;;;;3364455;42;20505;-62
2022/08/29 14:02:41;;;;;;;15.07;7.40;;;;;;;;;;3366490;42;20091;-62
2022/08/29 14:05:08;;;;;;;13.27;7.68;;;;;;;;;;3366612;42;20162;-61
2022/08/29 14:07:35;;;;;;;14.57;7.13;;;;;;;;;;3364714;42;20080;-62
2022/08/29 14:10:03;;;;;;;13.90;8.23;;;;;;;;;;3365273;42;20131;-61
2022/08/29 14:12:29;;;;;;;14.33;7.47;;;;;;;;;;3366182;42;20102;-61
2022/08/29 14:14:55;;;;;;;15.88;8.00;;;;;;;;;;3365997;42;20487;-61
2022/08/29 14:17:21;;;;;;;15.32;7.80;;;;;;;;;;3366216;42;20150;-61
2022/08/29 14:19:47;;;;;;;16.23;7.45;;;;;;;;;;3364899;42;20174;-61
2022/08/29 14:22:13;;;;;;;12.67;7.40;;;;;;;;;;3365941;42;20072;-62
2022/08/29 14:24:40;;;;;;;15.38;7.78;;;;;;;;;;3364833;42;20103;-62
2022/08/29 14:27:06;;;;;;;15.25;7.93;;;;;;;;;;3366049;42;20079;-60
2022/08/29 14:29:32;;;;;;;13.13;7.70;;;;;;;;;;3366117;42;20090;-62
2022/08/29 14:31:58;;;;;;;12.85;7.55;;;;;;;;;;3368750;42;20502;-61
2022/08/29 14:34:25;;;;;;;18.27;8.30;;;;;;;;;;3356191;42;20567;-63
2022/08/29 14:36:51;;;;;;;12.40;7.40;;;;;;;;;;3364043;42;20106;-62
2022/08/29 14:39:16;;;;;;;15.13;8.68;;;;;;;;;;3361362;42;20088;-62
2022/08/29 14:41:42;;;;;;;14.07;8.13;;;;;;;;;;3357262;42;20089;-67
2022/08/29 14:44:08;;;;;;;17.13;8.00;;;;;;;;;;3364647;42;20173;-62
2022/08/29 14:46:34;;;;;;;14.80;8.13;;;;;;;;;;3361282;42;20131;-61
2022/08/29 14:49:00;;;;;;;17.83;8.00;;;;;;;;;;3365897;42;20557;-61
2022/08/29 14:51:27;;;;;;;16.50;7.90;;;;;;;;;;3361166;42;20107;-61
2022/08/29 14:53:53;;;;;;;14.60;7.67;;;;;;;;;;3365640;42;20091;-62